Aviation Digital Data Service (ADDS)

Output produced by TAFs form (0951 UTC 28 May 2016)
found at http://aviationweather.gov/adds/tafs/
 
KDRO 280537Z 2806/2906 36003KT P6SM SCT090 
     FM281000 06005KT P6SM FEW250 
     FM281700 19005KT P6SM SCT250 
     FM282100 23009KT P6SM SCT100 
     FM290300 36005KT P6SM SCT250